createdAt,value
2018-06-02T00:01:35.862Z,18.90
2018-06-02T00:04:04.316Z,18.50
2018-06-02T00:06:32.766Z,21.37
2018-06-02T00:09:01.269Z,22.00
2018-06-02T00:11:32.157Z,24.40
2018-06-02T00:14:00.606Z,20.83
2018-06-02T00:16:29.108Z,22.70
2018-06-02T00:18:57.585Z,23.57
2018-06-02T00:21:26.032Z,25.80
2018-06-02T00:23:54.537Z,20.83
2018-06-02T00:26:22.989Z,26.83
2018-06-02T00:28:51.452Z,25.87
2018-06-02T00:31:19.957Z,26.03
2018-06-02T00:33:48.419Z,29.97
2018-06-02T00:36:16.875Z,25.07
2018-06-02T00:38:45.363Z,26.47
2018-06-02T00:41:13.820Z,28.00
2018-06-02T00:43:42.271Z,30.30
2018-06-02T00:46:10.769Z,27.70
2018-06-02T00:48:39.228Z,33.17
2018-06-02T00:51:07.681Z,32.53
2018-06-02T00:53:36.171Z,28.77
2018-06-02T00:56:04.641Z,31.67
2018-06-02T00:58:33.093Z,32.27
2018-06-02T01:01:01.604Z,29.47
2018-06-02T01:03:30.044Z,29.03
2018-06-02T01:05:58.504Z,31.63
2018-06-02T01:08:27.032Z,34.40
2018-06-02T01:10:55.487Z,33.70
2018-06-02T01:13:23.947Z,30.87
2018-06-02T01:15:52.437Z,33.20
2018-06-02T01:18:20.893Z,34.07
2018-06-02T01:20:49.361Z,34.80
2018-06-02T01:23:17.885Z,34.50
2018-06-02T01:25:46.336Z,35.10
2018-06-02T01:28:14.788Z,37.03
2018-06-02T01:30:43.281Z,37.33
2018-06-02T01:33:11.731Z,36.53
2018-06-02T01:35:40.172Z,32.60
2018-06-02T01:38:08.676Z,39.50
2018-06-02T01:40:37.129Z,39.17
2018-06-02T01:43:05.581Z,43.33
2018-06-02T01:45:34.084Z,31.97
2018-06-02T01:48:02.538Z,38.90
2018-06-02T01:50:31.015Z,41.80
2018-06-02T01:52:59.505Z,42.13
2018-06-02T01:55:27.988Z,41.93
2018-06-02T01:57:56.436Z,42.73
2018-06-02T02:00:24.940Z,41.53
2018-06-02T02:02:53.392Z,34.47
2018-06-02T02:05:21.845Z,39.03
2018-06-02T02:07:50.333Z,39.93
2018-06-02T02:10:18.788Z,37.50
2018-06-02T02:12:47.243Z,41.10
2018-06-02T02:15:15.755Z,41.33
2018-06-02T02:17:44.212Z,40.83
2018-06-02T02:20:12.669Z,38.47
2018-06-02T02:22:41.155Z,38.00
2018-06-02T02:25:09.605Z,38.30
2018-06-02T02:27:38.069Z,41.10
2018-06-02T02:30:06.563Z,42.23
2018-06-02T02:32:35.564Z,40.40
2018-06-02T02:35:04.015Z,44.37
2018-06-02T02:37:32.508Z,40.53
2018-06-02T02:40:00.961Z,44.27
2018-06-02T02:42:29.413Z,41.23
2018-06-02T02:44:57.901Z,44.23
2018-06-02T02:47:26.340Z,41.17
2018-06-02T02:49:54.800Z,43.20
2018-06-02T02:52:23.297Z,44.03
2018-06-02T02:54:51.756Z,42.67
2018-06-02T02:57:20.205Z,43.73
2018-06-02T02:59:48.723Z,43.57
2018-06-02T03:02:17.175Z,43.47
2018-06-02T03:04:45.636Z,38.97
2018-06-02T03:07:14.128Z,38.70
2018-06-02T03:09:42.588Z,39.40
2018-06-02T03:12:11.040Z,39.97
2018-06-02T03:14:39.552Z,45.50
2018-06-02T03:17:08.022Z,42.27
2018-06-02T03:19:36.481Z,38.60
2018-06-02T03:22:05.001Z,42.00
2018-06-02T03:24:33.449Z,42.87
2018-06-02T03:27:01.904Z,42.00
2018-06-02T03:29:30.412Z,45.97
2018-06-02T03:31:58.866Z,44.03
2018-06-02T03:34:27.336Z,46.77
2018-06-02T03:36:55.833Z,45.40
2018-06-02T03:39:24.291Z,45.93
2018-06-02T03:41:52.737Z,48.60
2018-06-02T03:44:21.230Z,46.23
2018-06-02T03:46:49.680Z,44.03
2018-06-02T03:49:18.117Z,47.23
2018-06-02T03:51:46.612Z,44.90
2018-06-02T03:54:15.080Z,48.87
2018-06-02T03:56:43.528Z,51.23
2018-06-02T03:59:12.025Z,49.70
2018-06-02T04:01:40.482Z,50.80
2018-06-02T04:04:08.936Z,50.93
2018-06-02T04:06:37.437Z,49.37
2018-06-02T04:09:05.920Z,50.83
2018-06-02T04:11:34.392Z,48.47
2018-06-02T04:14:02.885Z,49.33
2018-06-02T04:16:31.341Z,46.87
2018-06-02T04:18:59.793Z,47.13
2018-06-02T04:21:28.282Z,45.63
2018-06-02T04:23:56.729Z,43.97
2018-06-02T04:26:25.187Z,43.83
2018-06-02T04:28:53.677Z,44.33
2018-06-02T04:31:22.132Z,48.67
2018-06-02T04:33:50.590Z,48.43
2018-06-02T04:36:19.102Z,45.13
2018-06-02T04:38:47.553Z,46.20
2018-06-02T04:41:16.016Z,43.93
2018-06-02T04:43:44.509Z,45.30
2018-06-02T04:46:12.964Z,46.70
2018-06-02T04:48:41.418Z,47.43
2018-06-02T04:51:09.913Z,47.73
2018-06-02T04:53:38.360Z,45.60
2018-06-02T04:56:06.820Z,42.10
2018-06-02T04:58:35.309Z,38.80
2018-06-02T05:01:03.788Z,40.50
2018-06-02T05:03:32.242Z,41.17
2018-06-02T05:06:00.749Z,44.43
2018-06-02T05:08:29.204Z,44.97
2018-06-02T05:10:57.662Z,45.40
2018-06-02T05:13:26.148Z,47.23
2018-06-02T05:15:54.588Z,46.47
2018-06-02T05:18:23.045Z,45.53
2018-06-02T05:20:51.540Z,45.73
2018-06-02T05:23:19.992Z,44.90
2018-06-02T05:25:48.448Z,49.10
2018-06-02T05:28:16.950Z,45.40
2018-06-02T05:30:45.400Z,44.73
2018-06-02T05:33:13.858Z,48.10
2018-06-02T05:35:42.558Z,55.00
2018-06-02T05:38:11.004Z,50.67
2018-06-02T05:40:39.453Z,51.73
2018-06-02T05:43:07.941Z,52.50
2018-06-02T05:45:36.388Z,48.93
2018-06-02T05:48:04.845Z,54.90
2018-06-02T05:50:33.332Z,49.63
2018-06-02T05:53:01.791Z,49.63
2018-06-02T05:55:30.244Z,49.70
2018-06-02T05:57:58.939Z,49.87
2018-06-02T06:00:27.404Z,49.67
2018-06-02T06:02:55.876Z,50.73
2018-06-02T06:05:24.585Z,47.57
2018-06-02T06:07:53.041Z,48.30
2018-06-02T06:10:21.479Z,49.33
2018-06-02T06:12:49.980Z,53.23
2018-06-02T06:15:18.432Z,55.93
2018-06-02T06:17:46.885Z,58.60
2018-06-02T06:20:15.376Z,53.37
2018-06-02T06:22:43.829Z,54.03
2018-06-02T06:25:12.276Z,50.33
2018-06-02T06:27:40.777Z,49.33
2018-06-02T06:30:09.232Z,48.93
2018-06-02T06:32:37.691Z,48.33
2018-06-02T06:35:06.193Z,50.53
2018-06-02T06:37:34.657Z,47.03
2018-06-02T06:40:03.136Z,45.03
2018-06-02T06:42:31.653Z,46.97
2018-06-02T06:45:00.109Z,43.83
2018-06-02T06:47:28.572Z,45.13
2018-06-02T06:49:57.065Z,44.57
2018-06-02T06:52:25.517Z,46.13
2018-06-02T06:54:53.957Z,45.20
2018-06-02T06:57:22.473Z,43.60
2018-06-02T06:59:50.939Z,44.00
2018-06-02T07:02:19.409Z,43.07
2018-06-02T07:04:47.899Z,43.40
2018-06-02T07:07:16.361Z,41.40
2018-06-02T07:09:44.825Z,42.57
2018-06-02T07:12:13.495Z,41.60
2018-06-02T07:14:41.966Z,41.83
2018-06-02T07:17:10.440Z,42.50
2018-06-02T07:19:38.957Z,39.87
2018-06-02T07:22:07.405Z,39.77
2018-06-02T07:24:35.868Z,40.93
2018-06-02T07:27:04.386Z,37.27
2018-06-02T07:29:32.872Z,37.80
2018-06-02T07:32:01.334Z,36.63
2018-06-02T07:34:29.824Z,38.37
2018-06-02T07:36:58.287Z,38.87
2018-06-02T07:39:26.752Z,38.27
2018-06-02T07:41:55.353Z,38.93
2018-06-02T07:44:23.843Z,40.47
2018-06-02T07:46:52.326Z,39.30
2018-06-02T07:49:20.823Z,38.10
2018-06-02T07:51:49.273Z,40.57
2018-06-02T07:54:17.737Z,42.00
2018-06-02T07:56:46.246Z,42.83
2018-06-02T07:59:14.705Z,45.57
2018-06-02T08:01:43.170Z,41.73
2018-06-02T08:04:11.669Z,45.47
2018-06-02T08:06:40.125Z,45.27
2018-06-02T08:09:08.573Z,44.43
2018-06-02T08:11:37.072Z,43.83
2018-06-02T08:14:05.543Z,45.03
2018-06-02T08:16:33.995Z,42.00
2018-06-02T08:19:02.528Z,43.63
2018-06-02T08:21:30.997Z,41.67
2018-06-02T08:23:59.567Z,43.03
2018-06-02T08:26:28.061Z,40.10
2018-06-02T08:28:56.505Z,41.53
2018-06-02T08:31:24.961Z,40.23
2018-06-02T08:33:53.456Z,38.63
2018-06-02T08:36:21.905Z,37.20
2018-06-02T08:38:50.394Z,42.37
2018-06-02T08:41:19.035Z,40.40
2018-06-02T08:43:47.485Z,41.43
2018-06-02T08:46:15.968Z,40.13
2018-06-02T08:48:44.464Z,39.33
2018-06-02T08:51:12.919Z,40.60
2018-06-02T08:53:41.373Z,39.50
2018-06-02T08:56:09.884Z,38.37
2018-06-02T08:58:38.337Z,38.77
2018-06-02T09:01:06.822Z,37.87
2018-06-02T09:03:35.316Z,37.03
2018-06-02T09:06:03.772Z,39.03
2018-06-02T09:08:32.220Z,36.83
2018-06-02T09:11:00.769Z,38.90
2018-06-02T09:13:29.228Z,37.33
2018-06-02T09:15:57.686Z,36.13
2018-06-02T09:18:26.188Z,36.57
2018-06-02T09:20:54.646Z,35.17
2018-06-02T09:23:23.097Z,36.77
2018-06-02T09:25:51.593Z,34.20
2018-06-02T09:28:20.052Z,35.57
2018-06-02T09:30:48.502Z,35.57
2018-06-02T09:33:17.004Z,34.30
2018-06-02T09:35:45.472Z,34.13
2018-06-02T09:38:13.931Z,36.67
2018-06-02T09:40:42.438Z,35.93
2018-06-02T09:43:10.901Z,35.77
2018-06-02T09:45:39.349Z,33.70
2018-06-02T09:48:07.839Z,32.60
2018-06-02T09:50:36.298Z,32.40
2018-06-02T09:53:04.764Z,30.23
2018-06-02T09:55:33.359Z,28.30
2018-06-02T09:58:01.824Z,28.20
2018-06-02T10:00:30.716Z,27.40
2018-06-02T10:02:59.220Z,28.67
2018-06-02T10:05:27.682Z,27.17
2018-06-02T10:07:56.137Z,28.07
2018-06-02T10:10:24.627Z,25.97
2018-06-02T10:12:53.540Z,27.87
2018-06-02T10:15:22.009Z,27.87
2018-06-02T10:17:50.606Z,26.70
2018-06-02T10:20:19.049Z,27.03
2018-06-02T10:22:47.502Z,24.60
2018-06-02T10:25:15.992Z,25.63
2018-06-02T10:27:44.463Z,23.90
2018-06-02T10:30:12.906Z,25.03
2018-06-02T10:32:41.404Z,24.73
2018-06-02T10:35:09.850Z,23.57
2018-06-02T10:37:38.285Z,24.60
2018-06-02T10:40:06.771Z,23.40
2018-06-02T10:42:35.219Z,22.20
2018-06-02T10:45:03.665Z,21.87
2018-06-02T10:47:32.138Z,21.23
2018-06-02T10:50:00.572Z,21.63
2018-06-02T10:52:29.013Z,21.37
2018-06-02T10:54:57.488Z,21.07
2018-06-02T10:57:25.921Z,18.83
2018-06-02T10:59:54.373Z,17.83
2018-06-02T11:02:22.844Z,17.33
2018-06-02T11:04:51.280Z,16.00
2018-06-02T11:07:19.713Z,17.00
2018-06-02T11:09:48.181Z,16.93
2018-06-02T11:12:16.610Z,16.57
2018-06-02T11:14:45.050Z,15.40
2018-06-02T11:17:13.540Z,15.00
2018-06-02T11:19:41.976Z,15.00
2018-06-02T11:22:10.439Z,15.60
2018-06-02T11:24:38.942Z,15.33
2018-06-02T11:27:07.378Z,15.47
2018-06-02T11:29:35.809Z,18.13
2018-06-02T11:32:04.289Z,18.07
2018-06-02T11:34:32.729Z,17.50
2018-06-02T11:37:01.171Z,16.93
2018-06-02T11:39:29.657Z,15.93
2018-06-02T11:41:58.097Z,15.27
2018-06-02T11:44:26.528Z,15.63
2018-06-02T11:46:55.008Z,15.70
2018-06-02T11:49:23.459Z,17.13
2018-06-02T11:51:51.898Z,17.10
2018-06-02T11:54:20.368Z,17.23
2018-06-02T11:56:48.804Z,17.73
2018-06-02T11:59:17.252Z,17.17
2018-06-02T12:01:45.720Z,16.87
2018-06-02T12:04:14.156Z,18.10
2018-06-02T12:06:42.583Z,17.83
2018-06-02T12:09:11.061Z,16.87
2018-06-02T12:11:39.501Z,17.47
2018-06-02T12:14:07.947Z,17.23
2018-06-02T12:16:36.419Z,16.37
2018-06-02T12:19:04.856Z,16.57
2018-06-02T12:21:33.278Z,19.20
2018-06-02T12:24:01.758Z,21.77
2018-06-02T12:26:30.185Z,20.70
2018-06-02T12:28:58.623Z,20.87
2018-06-02T12:31:27.116Z,20.47
2018-06-02T12:33:55.558Z,21.27
2018-06-02T12:36:24.004Z,22.43
2018-06-02T12:38:52.498Z,21.67
2018-06-02T12:41:20.925Z,21.07
2018-06-02T12:43:49.377Z,21.23
2018-06-02T12:46:17.898Z,21.20
2018-06-02T12:48:46.320Z,21.13
2018-06-02T12:51:14.754Z,22.60
2018-06-02T12:53:43.228Z,19.47
2018-06-02T12:56:11.660Z,18.63
2018-06-02T12:58:40.106Z,17.70
2018-06-02T13:01:08.573Z,18.37
2018-06-02T13:03:37.005Z,19.50
2018-06-02T13:06:05.496Z,19.03
2018-06-02T13:08:34.013Z,19.30
2018-06-02T13:11:02.448Z,18.40
2018-06-02T13:13:30.888Z,18.90
2018-06-02T13:15:59.365Z,19.00
2018-06-02T13:18:27.795Z,18.50
2018-06-02T13:20:56.232Z,19.03
2018-06-02T13:23:24.701Z,20.50
2018-06-02T13:25:53.149Z,21.73
2018-06-02T13:28:21.592Z,23.60
2018-06-02T13:30:50.070Z,21.17
2018-06-02T13:33:18.499Z,21.60
2018-06-02T13:35:46.950Z,19.23
2018-06-02T13:38:15.438Z,18.83
2018-06-02T13:40:43.869Z,18.47
2018-06-02T13:43:12.304Z,18.77
2018-06-02T13:45:40.798Z,19.60
2018-06-02T13:48:09.283Z,18.50
2018-06-02T13:50:37.733Z,18.87
2018-06-02T13:53:06.223Z,18.30
2018-06-02T13:55:34.706Z,16.70
2018-06-02T13:58:03.153Z,17.53
2018-06-02T14:00:31.724Z,16.90
2018-06-02T14:03:00.182Z,18.40
2018-06-02T14:05:28.619Z,18.63
2018-06-02T14:07:57.105Z,18.70
2018-06-02T14:10:25.545Z,16.10
2018-06-02T14:12:53.985Z,16.83
2018-06-02T14:15:22.463Z,17.27
2018-06-02T14:17:50.905Z,17.00
2018-06-02T14:20:19.337Z,16.43
2018-06-02T14:22:47.835Z,17.40
2018-06-02T14:25:16.281Z,16.57
2018-06-02T14:27:44.705Z,15.97
2018-06-02T14:30:13.186Z,16.47
2018-06-02T14:32:41.627Z,16.20
2018-06-02T14:35:10.067Z,16.27
2018-06-02T14:37:38.537Z,16.00
2018-06-02T14:40:06.993Z,16.83
2018-06-02T14:42:35.425Z,15.93
2018-06-02T14:45:03.935Z,17.07
2018-06-02T14:47:32.371Z,15.90
2018-06-02T14:50:00.809Z,16.03
2018-06-02T14:52:29.290Z,14.67
2018-06-02T14:54:58.632Z,16.37
2018-06-02T14:57:27.066Z,17.23
2018-06-02T14:59:55.552Z,15.67
2018-06-02T15:02:23.985Z,14.83
2018-06-02T15:04:52.421Z,14.73
2018-06-02T15:07:20.888Z,14.77
2018-06-02T15:09:49.324Z,14.20
2018-06-02T15:12:17.777Z,13.97
2018-06-02T15:14:46.264Z,13.80
2018-06-02T15:17:14.697Z,12.40
2018-06-02T15:19:43.136Z,11.80
2018-06-02T15:22:11.616Z,12.77
2018-06-02T15:24:40.052Z,11.47
2018-06-02T15:27:08.483Z,11.33
2018-06-02T15:29:36.959Z,12.00
2018-06-02T15:32:05.389Z,10.20
2018-06-02T15:34:33.817Z,11.70
2018-06-02T15:37:02.294Z,11.03
2018-06-02T15:39:30.745Z,10.90
2018-06-02T15:41:59.176Z,10.00
2018-06-02T15:44:27.640Z,9.40
2018-06-02T15:46:56.073Z,9.60
2018-06-02T15:49:24.500Z,8.60
2018-06-02T15:51:52.971Z,9.03
2018-06-02T15:54:21.409Z,8.53
2018-06-02T15:56:49.845Z,9.10
2018-06-02T15:59:18.313Z,8.37
2018-06-02T16:01:46.740Z,9.03
2018-06-02T16:04:15.168Z,9.60
2018-06-02T16:06:43.672Z,8.63
2018-06-02T16:09:12.114Z,8.00
2018-06-02T16:11:40.557Z,10.07
2018-06-02T16:14:09.024Z,7.93
2018-06-02T16:16:37.453Z,8.97
2018-06-02T16:19:05.886Z,8.03
2018-06-02T16:21:34.373Z,7.83
2018-06-02T16:24:02.808Z,8.60
2018-06-02T16:26:31.232Z,8.37
2018-06-02T16:28:59.755Z,8.47
2018-06-02T16:31:28.177Z,8.40
2018-06-02T16:33:56.612Z,8.23
2018-06-02T16:36:25.073Z,8.13
2018-06-02T16:38:53.500Z,7.90
2018-06-02T16:41:21.928Z,8.83
2018-06-02T16:43:50.420Z,8.53
2018-06-02T16:46:18.845Z,8.90
2018-06-02T16:48:47.285Z,8.50
2018-06-02T16:51:15.753Z,9.13
2018-06-02T16:53:44.265Z,9.37
2018-06-02T16:56:12.700Z,9.97
2018-06-02T16:58:41.162Z,9.50
2018-06-02T17:01:09.590Z,10.07
2018-06-02T17:03:38.017Z,9.80
2018-06-02T17:06:06.517Z,9.00
2018-06-02T17:08:34.945Z,10.77
2018-06-02T17:11:03.389Z,12.03
2018-06-02T17:13:31.892Z,10.70
2018-06-02T17:16:00.321Z,11.40
2018-06-02T17:18:28.755Z,11.43
2018-06-02T17:20:57.249Z,11.43
2018-06-02T17:23:25.699Z,11.00
2018-06-02T17:25:54.141Z,12.23
2018-06-02T17:28:22.626Z,11.50
2018-06-02T17:30:51.064Z,12.47
2018-06-02T17:33:19.502Z,12.73
2018-06-02T17:35:48.005Z,12.17
2018-06-02T17:38:16.451Z,10.93
2018-06-02T17:40:44.880Z,12.83
2018-06-02T17:43:13.350Z,14.03
2018-06-02T17:45:41.801Z,14.07
2018-06-02T17:48:10.264Z,14.83
2018-06-02T17:50:38.743Z,14.17
2018-06-02T17:53:07.221Z,15.70
2018-06-02T17:55:35.661Z,13.80
2018-06-02T17:58:04.156Z,15.97
2018-06-02T18:00:32.643Z,14.77
2018-06-02T18:03:01.077Z,15.23
2018-06-02T18:05:29.555Z,15.47
2018-06-02T18:07:58.004Z,15.43
2018-06-02T18:10:26.450Z,19.53
2018-06-02T18:12:55.006Z,15.87
2018-06-02T18:15:23.440Z,16.27
2018-06-02T18:17:51.879Z,16.17
2018-06-02T18:20:20.357Z,15.30
2018-06-02T18:22:48.796Z,16.73
2018-06-02T18:25:17.226Z,16.40
2018-06-02T18:27:45.721Z,16.20
2018-06-02T18:30:14.161Z,16.30
2018-06-02T18:32:42.605Z,15.50
2018-06-02T18:35:11.101Z,17.47
2018-06-02T18:37:39.551Z,17.20
2018-06-02T18:40:07.987Z,17.43
2018-06-02T18:42:36.478Z,17.40
2018-06-02T18:45:04.928Z,17.20
2018-06-02T18:47:33.373Z,17.87
2018-06-02T18:50:01.869Z,16.53
2018-06-02T18:52:30.313Z,16.77
2018-06-02T18:54:58.770Z,17.67
2018-06-02T18:57:27.248Z,18.37
2018-06-02T18:59:55.677Z,16.67
2018-06-02T19:02:24.119Z,19.33
2018-06-02T19:04:52.603Z,19.80
2018-06-02T19:07:21.057Z,19.03
2018-06-02T19:09:49.516Z,16.53
2018-06-02T19:12:17.988Z,17.63
2018-06-02T19:14:46.432Z,18.90
2018-06-02T19:17:14.896Z,19.13
2018-06-02T19:19:43.406Z,18.17
2018-06-02T19:22:11.861Z,17.30
2018-06-02T19:24:40.305Z,17.67
2018-06-02T19:27:08.785Z,19.77
2018-06-02T19:29:37.233Z,19.07
2018-06-02T19:32:05.670Z,19.40
2018-06-02T19:34:34.157Z,19.40
2018-06-02T19:37:02.590Z,21.50
2018-06-02T19:39:31.045Z,20.77
2018-06-02T19:41:59.534Z,20.87
2018-06-02T19:44:27.970Z,20.93
2018-06-02T19:46:56.420Z,21.60
2018-06-02T19:49:24.918Z,21.70
2018-06-02T19:51:53.367Z,20.53
2018-06-02T19:54:21.828Z,20.27
2018-06-02T19:56:50.344Z,20.93
2018-06-02T19:59:18.784Z,19.40
2018-06-02T20:01:47.242Z,21.20
2018-06-02T20:04:15.866Z,21.97
2018-06-02T20:06:44.381Z,17.90
2018-06-02T20:09:12.819Z,17.93
2018-06-02T20:11:41.316Z,19.07
2018-06-02T20:14:09.756Z,27.07
2018-06-02T20:16:38.214Z,24.80
2018-06-02T20:19:06.697Z,22.40
2018-06-02T20:21:35.165Z,21.70
2018-06-02T20:24:03.633Z,21.17
2018-06-02T20:26:32.107Z,19.90
2018-06-02T20:29:00.549Z,20.43
2018-06-02T20:31:28.988Z,22.83
2018-06-02T20:33:57.475Z,24.20
2018-06-02T20:36:26.244Z,23.60
2018-06-02T20:38:54.696Z,19.93
2018-06-02T20:41:23.231Z,22.53
2018-06-02T20:43:51.694Z,24.40
2018-06-02T20:46:20.216Z,22.80
2018-06-02T20:48:48.736Z,23.30
2018-06-02T20:51:17.199Z,23.73
2018-06-02T20:53:45.658Z,25.00
2018-06-02T20:56:14.163Z,22.53
2018-06-02T20:58:42.614Z,22.97
2018-06-02T21:01:11.066Z,21.37
2018-06-02T21:03:39.553Z,24.10
2018-06-02T21:06:07.977Z,23.67
2018-06-02T21:08:36.442Z,23.73
2018-06-02T21:11:04.956Z,23.10
2018-06-02T21:13:33.417Z,21.40
2018-06-02T21:16:01.869Z,21.83
2018-06-02T21:18:30.359Z,22.90
2018-06-02T21:20:58.796Z,21.93
2018-06-02T21:23:27.244Z,21.30
2018-06-02T21:25:55.733Z,19.70
2018-06-02T21:28:24.175Z,21.97
2018-06-02T21:30:52.607Z,21.73
2018-06-02T21:33:21.097Z,20.43
2018-06-02T21:35:49.529Z,20.23
2018-06-02T21:38:17.970Z,21.10
2018-06-02T21:40:46.447Z,22.63
2018-06-02T21:43:14.885Z,23.20
2018-06-02T21:45:43.337Z,21.47
2018-06-02T21:48:12.275Z,20.17
2018-06-02T21:50:40.725Z,21.07
2018-06-02T21:53:09.164Z,22.87
2018-06-02T21:55:37.641Z,21.37
2018-06-02T21:58:06.084Z,23.37
2018-06-02T22:00:34.540Z,23.40
2018-06-02T22:03:03.039Z,23.03
2018-06-02T22:05:31.510Z,23.33
2018-06-02T22:07:59.951Z,22.10
2018-06-02T22:10:28.609Z,17.93
2018-06-02T22:12:57.084Z,21.73
2018-06-02T22:15:25.568Z,20.30
2018-06-02T22:17:54.044Z,19.33
2018-06-02T22:20:22.484Z,21.23
2018-06-02T22:22:50.917Z,19.47
2018-06-02T22:25:19.405Z,19.30
2018-06-02T22:27:47.841Z,20.53
2018-06-02T22:30:16.280Z,22.43
2018-06-02T22:32:44.785Z,21.90
2018-06-02T22:35:13.221Z,23.07
2018-06-02T22:37:41.661Z,20.77
2018-06-02T22:40:10.141Z,22.20
2018-06-02T22:42:38.572Z,22.27
2018-06-02T22:45:07.038Z,18.83
2018-06-02T22:47:35.515Z,18.47
2018-06-02T22:50:04.010Z,22.67
2018-06-02T22:52:32.470Z,20.33
2018-06-02T22:55:01.009Z,20.30
2018-06-02T22:57:29.485Z,19.80
2018-06-02T22:59:57.963Z,21.20
2018-06-02T23:02:26.462Z,21.23
2018-06-02T23:04:54.933Z,19.87
2018-06-02T23:07:23.423Z,23.37
2018-06-02T23:09:51.947Z,22.67
2018-06-02T23:12:20.395Z,22.43
2018-06-02T23:14:48.854Z,22.83
2018-06-02T23:17:17.334Z,23.43
2018-06-02T23:19:45.772Z,22.33
2018-06-02T23:22:27.782Z,23.47
2018-06-02T23:24:56.228Z,22.23
2018-06-02T23:27:24.678Z,23.73
2018-06-02T23:29:53.170Z,24.23
2018-06-02T23:32:21.609Z,23.17
2018-06-02T23:34:50.048Z,23.20
2018-06-02T23:37:18.530Z,24.53
2018-06-02T23:39:46.972Z,25.90
2018-06-02T23:42:15.415Z,23.93
2018-06-02T23:44:43.893Z,24.77
2018-06-02T23:47:12.345Z,24.87
2018-06-02T23:49:40.784Z,23.20
2018-06-02T23:52:09.263Z,23.80
2018-06-02T23:54:37.715Z,25.13
2018-06-02T23:57:06.162Z,22.40
2018-06-02T23:59:34.825Z,24.73
